createdAt,value
2019-02-23T00:02:37.020Z,103307.58
2019-02-23T00:07:42.433Z,103311.44
2019-02-23T00:12:47.920Z,103315.91
2019-02-23T00:17:53.380Z,103319.71
2019-02-23T00:22:58.736Z,103316.02
2019-02-23T00:28:04.155Z,103322.11
2019-02-23T00:33:09.644Z,103325.09
2019-02-23T00:38:15.153Z,103315.36
2019-02-23T00:43:20.569Z,103308.80
2019-02-23T00:48:26.094Z,103320.01
2019-02-23T00:53:31.645Z,103329.07
2019-02-23T00:58:37.046Z,103315.25
2019-02-23T01:03:42.497Z,103305.92
2019-02-23T01:08:47.868Z,103310.27
2019-02-23T01:13:53.437Z,103320.39
2019-02-23T01:18:58.827Z,103317.08
2019-02-23T01:24:04.240Z,103311.56
2019-02-23T01:29:09.745Z,103320.45
2019-02-23T01:34:15.404Z,103309.11
2019-02-23T01:39:20.872Z,103302.74
2019-02-23T01:44:26.388Z,103304.65
2019-02-23T01:49:31.788Z,103307.70
2019-02-23T01:54:37.268Z,103318.14
2019-02-23T01:59:42.735Z,103311.52
2019-02-23T02:04:48.188Z,103309.97
2019-02-23T02:09:53.562Z,103307.63
2019-02-23T02:14:59.038Z,103320.06
2019-02-23T02:20:10.948Z,103323.83
2019-02-23T02:25:11.862Z,103324.97
2019-02-23T02:30:17.393Z,103320.95
2019-02-23T02:35:22.786Z,103313.47
2019-02-23T02:40:28.205Z,103307.20
2019-02-23T02:45:33.566Z,103322.08
2019-02-23T02:50:38.949Z,103309.52
2019-02-23T02:55:44.357Z,103307.73
2019-02-23T03:00:49.887Z,103303.61
2019-02-23T03:05:55.366Z,103295.56
2019-02-23T03:11:00.824Z,103300.45
2019-02-23T03:16:06.240Z,103295.58
2019-02-23T03:21:11.732Z,103287.25
2019-02-23T03:26:17.096Z,103296.69
2019-02-23T03:31:22.556Z,103291.77
2019-02-23T03:36:28.059Z,103291.56
2019-02-23T03:41:33.580Z,103298.16
2019-02-23T03:46:39.040Z,103299.19
2019-02-23T03:51:44.448Z,103302.45
2019-02-23T03:56:49.884Z,103300.25
2019-02-23T04:01:57.027Z,103296.23
2019-02-23T04:07:02.481Z,103295.30
2019-02-23T04:12:07.854Z,103295.61
2019-02-23T04:17:13.404Z,103293.89
2019-02-23T04:22:18.773Z,103300.11
2019-02-23T04:27:24.195Z,103310.66
2019-02-23T04:32:29.629Z,103322.34
2019-02-23T04:37:35.071Z,103328.75
2019-02-23T04:42:40.596Z,103328.20
2019-02-23T04:47:46.066Z,103333.09
2019-02-23T04:52:51.438Z,103342.77
2019-02-23T04:57:56.798Z,103347.70
2019-02-23T05:03:02.374Z,103349.52
2019-02-23T05:08:07.856Z,103353.22
2019-02-23T05:13:13.256Z,103355.65
2019-02-23T05:18:18.805Z,103365.40
2019-02-23T05:23:24.244Z,103370.09
2019-02-23T05:28:29.678Z,103367.41
2019-02-23T05:33:35.130Z,103367.61
2019-02-23T05:38:40.595Z,103365.23
2019-02-23T05:43:46.210Z,103364.48
2019-02-23T05:48:51.668Z,103365.70
2019-02-23T05:54:00.967Z,103365.30
2019-02-23T05:59:06.434Z,103365.65
2019-02-23T06:04:11.851Z,103359.09
2019-02-23T06:09:17.288Z,103360.95
2019-02-23T06:14:22.769Z,103380.47
2019-02-23T06:19:28.255Z,103390.73
2019-02-23T06:24:33.643Z,103397.59
2019-02-23T06:29:38.999Z,103410.72
2019-02-23T06:34:44.462Z,103405.67
2019-02-23T06:39:50.031Z,103403.15
2019-02-23T06:44:55.401Z,103402.47
2019-02-23T06:50:00.865Z,103415.23
2019-02-23T06:55:06.351Z,103421.12
2019-02-23T07:00:14.356Z,103422.77
2019-02-23T07:05:19.732Z,103419.17
2019-02-23T07:10:25.150Z,103420.83
2019-02-23T07:15:30.506Z,103425.34
2019-02-23T07:20:43.741Z,103416.39
2019-02-23T07:25:43.059Z,103413.64
2019-02-23T07:30:48.417Z,103406.85
2019-02-23T07:35:53.915Z,103413.20
2019-02-23T07:40:59.308Z,103406.72
2019-02-23T07:46:04.734Z,103397.13
2019-02-23T07:51:10.200Z,103399.44
2019-02-23T07:56:15.572Z,103392.12
2019-02-23T08:01:20.970Z,103381.79
2019-02-23T08:06:26.458Z,103384.31
2019-02-23T08:11:31.919Z,103369.59
2019-02-23T08:16:37.375Z,103371.67
2019-02-23T08:21:43.143Z,103351.61
2019-02-23T08:26:48.640Z,103348.36
2019-02-23T08:31:54.006Z,103342.81
2019-02-23T08:36:59.449Z,103339.64
2019-02-23T08:42:05.030Z,103336.25
2019-02-23T08:47:10.602Z,103327.69
2019-02-23T08:52:17.480Z,103318.61
2019-02-23T08:57:23.029Z,103309.98
2019-02-23T09:02:28.443Z,103314.37
2019-02-23T09:07:33.837Z,103303.71
2019-02-23T09:12:39.369Z,103300.19
2019-02-23T09:17:44.833Z,103300.93
2019-02-23T09:22:59.770Z,103309.34
2019-02-23T09:27:57.755Z,103311.17
2019-02-23T09:33:03.222Z,103303.14
2019-02-23T09:38:08.933Z,103305.08
2019-02-23T09:43:14.676Z,103301.32
2019-02-23T09:48:20.258Z,103288.20
2019-02-23T09:53:25.616Z,103284.83
2019-02-23T09:58:31.341Z,103296.45
2019-02-23T10:03:36.763Z,103317.80
2019-02-23T10:08:42.285Z,103330.27
2019-02-23T10:13:47.735Z,103344.45
2019-02-23T10:18:53.389Z,103356.25
2019-02-23T10:23:58.987Z,103361.65
2019-02-23T10:29:04.417Z,103357.59
2019-02-23T10:34:09.881Z,103344.46
2019-02-23T10:39:15.356Z,103348.30
2019-02-23T10:44:20.802Z,103340.77
2019-02-23T10:49:26.273Z,103340.55
2019-02-23T10:54:31.690Z,103337.57
2019-02-23T10:59:37.242Z,103330.70
2019-02-23T11:04:42.754Z,103321.46
2019-02-23T11:09:48.347Z,103312.61
2019-02-23T11:14:53.709Z,103307.09
2019-02-23T11:19:59.092Z,103308.47
2019-02-23T11:25:05.120Z,103301.69
2019-02-23T11:30:11.284Z,103297.98
2019-02-23T11:35:17.643Z,103294.26
2019-02-23T11:40:23.672Z,103287.48
2019-02-23T11:45:30.930Z,103282.72
2019-02-23T11:50:36.469Z,103278.17
2019-02-23T11:55:42.053Z,103275.27
2019-02-23T12:00:47.639Z,103262.91
2019-02-23T12:05:53.032Z,103260.00
2019-02-23T12:10:58.483Z,103255.84
2019-02-23T12:16:04.105Z,103222.61
2019-02-23T12:21:09.732Z,103224.02
2019-02-23T12:26:15.139Z,103209.63
2019-02-23T12:31:20.611Z,103200.95
2019-02-23T12:36:26.465Z,103190.65
2019-02-23T12:41:32.128Z,103184.77
2019-02-23T12:46:37.553Z,103184.28
2019-02-23T12:51:43.121Z,103182.76
2019-02-23T12:56:48.809Z,103181.59
2019-02-23T13:01:54.295Z,103185.66
2019-02-23T13:06:59.736Z,103189.28
2019-02-23T13:12:48.772Z,103177.03
2019-02-23T13:18:57.331Z,103168.45
2019-02-23T13:24:44.428Z,103156.61
2019-02-23T13:30:33.783Z,103152.86
2019-02-23T13:36:41.163Z,103155.20
2019-02-23T13:42:44.278Z,103161.06
2019-02-23T13:48:48.447Z,103163.30
2019-02-23T13:55:08.091Z,103158.30
2019-02-23T14:01:45.593Z,103153.94
2019-02-23T14:07:36.765Z,103166.43
2019-02-23T14:13:35.047Z,103171.06
2019-02-23T14:19:28.223Z,103160.81
2019-02-23T14:25:30.711Z,103155.32
2019-02-23T14:31:33.321Z,103159.84
2019-02-23T14:37:22.618Z,103156.06
2019-02-23T14:43:20.361Z,103145.52
2019-02-23T14:49:29.429Z,103141.19
2019-02-23T14:55:06.802Z,103138.98
2019-02-23T15:00:42.926Z,103129.00
2019-02-23T15:06:40.625Z,103138.20
2019-02-23T15:12:29.226Z,103145.67
2019-02-23T15:18:29.388Z,103154.82
2019-02-23T15:24:16.030Z,103149.95
2019-02-23T15:30:01.583Z,103140.51
2019-02-23T15:35:42.986Z,103135.92
2019-02-23T15:41:34.884Z,103131.86
2019-02-23T15:47:22.445Z,103147.48
2019-02-23T15:52:27.980Z,103149.84
2019-02-23T15:57:33.513Z,103151.05
2019-02-23T16:02:39.136Z,103153.94
2019-02-23T16:07:44.849Z,103146.81
2019-02-23T16:12:50.628Z,103149.61
2019-02-23T16:17:56.834Z,103146.24
2019-02-23T16:23:02.368Z,103150.67
2019-02-23T16:28:07.927Z,103160.27
2019-02-23T16:33:13.375Z,103175.13
2019-02-23T16:38:19.092Z,103173.43
2019-02-23T16:43:24.954Z,103180.76
2019-02-23T16:48:30.626Z,103188.05
2019-02-23T16:53:36.283Z,103184.91
2019-02-23T16:58:42.512Z,103184.52
2019-02-23T17:03:47.945Z,103186.85
2019-02-23T17:08:53.501Z,103181.83
2019-02-23T17:13:58.956Z,103191.59
2019-02-23T17:19:04.541Z,103193.69
2019-02-23T17:24:10.052Z,103197.69
2019-02-23T17:29:15.643Z,103205.30
2019-02-23T17:34:21.063Z,103198.08
2019-02-23T17:39:26.756Z,103190.17
2019-02-23T17:44:32.125Z,103185.50
2019-02-23T17:49:37.634Z,103187.41
2019-02-23T17:54:43.083Z,103195.44
2019-02-23T17:59:48.853Z,103191.00
2019-02-23T18:04:54.560Z,103195.05
2019-02-23T18:10:00.295Z,103189.61
2019-02-23T18:15:06.258Z,103185.44
2019-02-23T18:20:12.963Z,103179.02
2019-02-23T18:25:18.346Z,103167.68
2019-02-23T18:30:23.806Z,103179.44
2019-02-23T18:35:29.357Z,103178.66
2019-02-23T18:40:35.142Z,103182.09
2019-02-23T18:45:47.173Z,103186.77
2019-02-23T18:50:47.834Z,103193.22
2019-02-23T18:55:53.272Z,103199.26
2019-02-23T19:00:58.851Z,103207.17
2019-02-23T19:06:04.441Z,103212.70
2019-02-23T19:11:10.195Z,103212.39
2019-02-23T19:16:15.719Z,103210.55
2019-02-23T19:21:21.504Z,103218.67
2019-02-23T19:26:27.045Z,103220.55
2019-02-23T19:31:34.223Z,103221.68
2019-02-23T19:36:39.668Z,103219.28
2019-02-23T19:41:45.332Z,103223.06
2019-02-23T19:47:10.584Z,103221.98
2019-02-23T19:52:19.162Z,103215.77
2019-02-23T19:57:24.714Z,103225.16
2019-02-23T20:02:30.071Z,103225.28
2019-02-23T20:07:35.538Z,103236.98
2019-02-23T20:12:41.097Z,103240.61
2019-02-23T20:17:46.554Z,103245.78
2019-02-23T20:22:51.933Z,103240.98
2019-02-23T20:27:57.529Z,103246.34
2019-02-23T20:33:03.258Z,103249.36
2019-02-23T20:38:08.720Z,103241.30
2019-02-23T20:43:14.183Z,103244.42
2019-02-23T20:48:20.169Z,103242.30
2019-02-23T20:53:25.683Z,103237.69
2019-02-23T20:58:31.238Z,103242.36
2019-02-23T21:03:36.766Z,103237.92
2019-02-23T21:08:42.218Z,103249.97
2019-02-23T21:13:47.811Z,103243.19
2019-02-23T21:18:53.293Z,103250.94
2019-02-23T21:23:58.721Z,103241.59
2019-02-23T21:29:04.261Z,103236.87
2019-02-23T21:34:09.762Z,103238.38
2019-02-23T21:39:15.354Z,103239.22
2019-02-23T21:44:20.790Z,103233.83
2019-02-23T21:49:26.236Z,103229.41
2019-02-23T21:54:31.905Z,103232.59
2019-02-23T21:59:37.862Z,103233.02
2019-02-23T22:04:43.269Z,103228.85
2019-02-23T22:09:48.645Z,103209.91
2019-02-23T22:14:54.230Z,103223.70
2019-02-23T22:19:59.780Z,103228.22
2019-02-23T22:25:05.317Z,103233.99
2019-02-23T22:30:10.801Z,103234.91
2019-02-23T22:35:16.309Z,103246.03
2019-02-23T22:40:21.701Z,103235.63
2019-02-23T22:45:27.185Z,103250.05
2019-02-23T22:50:32.558Z,103234.46
2019-02-23T22:55:38.180Z,103232.78
2019-02-23T23:00:58.179Z,103231.06
2019-02-23T23:06:03.567Z,103229.66
2019-02-23T23:11:08.875Z,103227.20
2019-02-23T23:16:14.465Z,103228.50
2019-02-23T23:21:19.895Z,103228.84
2019-02-23T23:26:25.466Z,103223.05
2019-02-23T23:31:30.967Z,103227.61
2019-02-23T23:36:36.489Z,103221.17
2019-02-23T23:41:42.306Z,103218.08
2019-02-23T23:46:47.799Z,103216.03
2019-02-23T23:51:53.190Z,103218.27
2019-02-23T23:56:58.605Z,103215.20
